createdAt,value
2023-04-11T00:02:23.070Z,14.80
2023-04-11T00:04:54.742Z,14.90
2023-04-11T00:07:22.516Z,14.90
2023-04-11T00:09:50.218Z,14.80
2023-04-11T00:12:17.968Z,14.80
2023-04-11T00:14:49.027Z,14.90
2023-04-11T00:17:18.504Z,14.90
2023-04-11T00:20:06.424Z,14.90
2023-04-11T00:22:34.311Z,14.90
2023-04-11T00:25:02.060Z,14.80
2023-04-11T00:27:30.001Z,14.80
2023-04-11T00:29:57.947Z,14.80
2023-04-11T00:32:27.160Z,14.60
2023-04-11T00:34:55.284Z,14.50
2023-04-11T00:37:23.097Z,14.50
2023-04-11T00:39:52.774Z,14.50
2023-04-11T00:42:21.213Z,14.50
2023-04-11T00:44:48.920Z,14.50
2023-04-11T00:47:16.871Z,14.40
2023-04-11T00:49:46.486Z,14.30
2023-04-11T00:52:14.310Z,14.20
2023-04-11T00:54:42.240Z,14.10
2023-04-11T00:57:10.352Z,14.20
2023-04-11T00:59:38.246Z,14.30
2023-04-11T01:02:08.114Z,14.30
2023-04-11T01:04:35.931Z,14.30
2023-04-11T01:07:08.156Z,14.40
2023-04-11T01:09:37.434Z,14.40
2023-04-11T01:12:06.994Z,14.40
2023-04-11T01:14:34.711Z,14.30
2023-04-11T01:17:03.097Z,14.30
2023-04-11T01:19:31.509Z,14.30
2023-04-11T01:22:01.016Z,14.10
2023-04-11T01:24:30.717Z,14.00
2023-04-11T01:26:58.632Z,14.00
2023-04-11T01:29:26.318Z,13.90
2023-04-11T01:31:54.106Z,13.80
2023-04-11T01:34:23.472Z,13.50
2023-04-11T01:36:51.241Z,13.40
2023-04-11T01:39:18.918Z,13.30
2023-04-11T01:41:48.040Z,13.30
2023-04-11T01:44:16.391Z,13.00
2023-04-11T01:46:44.653Z,13.00
2023-04-11T01:49:16.218Z,12.70
2023-04-11T01:51:44.010Z,12.70
2023-04-11T01:54:12.078Z,12.60
2023-04-11T01:56:39.789Z,12.50
2023-04-11T01:59:08.884Z,12.90
2023-04-11T02:01:37.142Z,13.20
2023-04-11T02:04:05.082Z,13.30
2023-04-11T02:06:33.131Z,13.30
2023-04-11T02:09:00.852Z,13.30
2023-04-11T02:11:28.584Z,13.20
2023-04-11T02:13:56.278Z,13.30
2023-04-11T02:16:25.915Z,13.40
2023-04-11T02:18:54.379Z,13.30
2023-04-11T02:21:22.464Z,13.20
2023-04-11T02:23:50.286Z,13.20
2023-04-11T02:26:18.014Z,13.30
2023-04-11T02:28:45.720Z,13.30
2023-04-11T02:31:13.495Z,13.30
2023-04-11T02:33:42.638Z,13.20
2023-04-11T02:36:12.421Z,13.10
2023-04-11T02:38:40.241Z,13.20
2023-04-11T02:41:08.672Z,13.20
2023-04-11T02:43:36.368Z,13.30
2023-04-11T02:46:12.751Z,13.30
2023-04-11T02:48:42.504Z,13.30
2023-04-11T02:51:10.335Z,13.30
2023-04-11T02:53:38.096Z,13.10
2023-04-11T02:56:07.232Z,12.90
2023-04-11T02:58:38.901Z,12.60
2023-04-11T03:01:07.901Z,12.70
2023-04-11T03:03:35.678Z,12.80
2023-04-11T03:06:06.806Z,12.90
2023-04-11T03:08:35.816Z,13.00
2023-04-11T03:11:03.759Z,13.10
2023-04-11T03:13:32.064Z,13.10
2023-04-11T03:15:59.996Z,13.00
2023-04-11T03:18:27.760Z,12.90
2023-04-11T03:20:55.975Z,12.90
2023-04-11T03:23:25.042Z,12.70
2023-04-11T03:25:53.673Z,12.60
2023-04-11T03:28:21.362Z,12.70
2023-04-11T03:30:50.458Z,12.70
2023-04-11T03:33:18.237Z,12.70
2023-04-11T03:35:46.012Z,12.60
2023-04-11T03:38:13.788Z,12.60
2023-04-11T03:40:44.083Z,12.50
2023-04-11T03:43:12.109Z,12.10
2023-04-11T03:45:39.837Z,12.10
2023-04-11T03:48:07.868Z,11.90
2023-04-11T03:50:35.771Z,12.00
2023-04-11T03:53:03.463Z,12.10
2023-04-11T03:55:31.204Z,12.10
2023-04-11T03:58:00.462Z,12.20
2023-04-11T04:00:28.462Z,12.20
2023-04-11T04:02:56.328Z,12.40
2023-04-11T04:05:24.306Z,12.40
2023-04-11T04:07:53.005Z,12.40
2023-04-11T04:10:22.232Z,12.40
2023-04-11T04:12:49.934Z,12.50
2023-04-11T04:15:19.172Z,12.40
2023-04-11T04:17:46.937Z,12.40
2023-04-11T04:20:14.750Z,12.30
2023-04-11T04:22:42.454Z,12.20
2023-04-11T04:25:12.639Z,12.30
2023-04-11T04:27:44.088Z,12.40
2023-04-11T04:30:15.619Z,12.40
2023-04-11T04:32:45.663Z,12.50
2023-04-11T04:35:16.512Z,12.50
2023-04-11T04:37:46.040Z,12.10
2023-04-11T04:40:15.771Z,12.00
2023-04-11T04:42:43.756Z,11.80
2023-04-11T04:45:12.002Z,11.90
2023-04-11T04:47:39.753Z,12.10
2023-04-11T04:50:09.895Z,11.90
2023-04-11T04:52:37.633Z,11.80
2023-04-11T04:55:06.192Z,11.90
2023-04-11T04:57:33.919Z,12.10
2023-04-11T05:00:01.664Z,12.10
2023-04-11T05:02:30.706Z,12.10
2023-04-11T05:05:03.840Z,12.00
2023-04-11T05:07:32.880Z,12.10
2023-04-11T05:10:00.714Z,12.10
2023-04-11T05:12:28.680Z,11.80
2023-04-11T05:14:56.793Z,11.90
2023-04-11T05:17:25.588Z,12.00
2023-04-11T05:19:53.503Z,11.90
2023-04-11T05:22:21.259Z,11.90
2023-04-11T05:24:50.473Z,11.90
2023-04-11T05:27:18.706Z,11.90
2023-04-11T05:29:46.954Z,12.00
2023-04-11T05:32:14.663Z,11.80
2023-04-11T05:34:52.674Z,11.60
2023-04-11T05:37:20.703Z,10.60
2023-04-11T05:39:50.059Z,9.60
2023-04-11T05:42:18.519Z,9.40
2023-04-11T05:44:46.202Z,9.00
2023-04-11T05:47:13.918Z,9.10
2023-04-11T05:49:41.609Z,9.20
2023-04-11T05:52:09.306Z,9.20
2023-04-11T05:54:38.164Z,9.00
2023-04-11T05:57:07.636Z,8.90
2023-04-11T05:59:36.146Z,9.40
2023-04-11T06:02:03.993Z,9.20
2023-04-11T06:04:32.114Z,9.60
2023-04-11T06:07:00.073Z,9.90
2023-04-11T06:09:27.799Z,10.10
2023-04-11T06:11:56.758Z,10.10
2023-04-11T06:14:25.960Z,10.10
2023-04-11T06:16:53.684Z,10.30
2023-04-11T06:19:21.443Z,10.50
2023-04-11T06:21:49.129Z,10.70
2023-04-11T06:24:18.205Z,10.90
2023-04-11T06:26:45.987Z,11.00
2023-04-11T06:29:13.686Z,11.10
2023-04-11T06:31:42.767Z,11.10
2023-04-11T06:34:10.534Z,11.00
2023-04-11T06:36:40.335Z,11.10
2023-04-11T06:39:09.718Z,10.90
2023-04-11T06:41:37.527Z,10.80
2023-04-11T06:44:05.272Z,10.80
2023-04-11T06:46:32.993Z,10.90
2023-04-11T06:49:03.229Z,11.10
2023-04-11T06:51:31.319Z,11.40
2023-04-11T06:53:59.118Z,11.10
2023-04-11T06:56:27.328Z,11.20
2023-04-11T06:58:55.502Z,11.40
2023-04-11T07:01:25.729Z,11.50
2023-04-11T07:03:54.232Z,11.90
2023-04-11T07:06:24.138Z,11.60
2023-04-11T07:08:53.386Z,11.00
2023-04-11T07:11:21.728Z,10.60
2023-04-11T07:13:50.952Z,10.40
2023-04-11T07:16:18.662Z,10.30
2023-04-11T07:18:46.413Z,10.40
2023-04-11T07:21:14.434Z,10.30
2023-04-11T07:23:44.701Z,10.50
2023-04-11T07:26:13.249Z,10.40
2023-04-11T07:28:44.088Z,10.30
2023-04-11T07:31:13.801Z,10.30
2023-04-11T07:33:44.569Z,10.40
2023-04-11T07:36:12.671Z,10.50
2023-04-11T07:38:41.194Z,10.20
2023-04-11T07:41:10.738Z,10.30
2023-04-11T07:43:38.545Z,10.50
2023-04-11T07:46:06.788Z,10.10
2023-04-11T07:48:34.790Z,9.90
2023-04-11T07:51:02.583Z,9.80
2023-04-11T07:53:31.110Z,9.60
2023-04-11T07:55:59.042Z,9.40
2023-04-11T07:58:28.372Z,9.40
2023-04-11T08:00:56.260Z,9.10
2023-04-11T08:03:24.243Z,9.00
2023-04-11T08:05:52.413Z,9.00
2023-04-11T08:08:20.539Z,9.30
2023-04-11T08:10:51.465Z,9.80
2023-04-11T08:13:19.810Z,10.00
2023-04-11T08:15:48.932Z,10.00
2023-04-11T08:18:21.337Z,9.90
2023-04-11T08:20:49.250Z,9.80
2023-04-11T08:23:19.693Z,9.70
2023-04-11T08:25:47.646Z,9.90
2023-04-11T08:28:15.483Z,10.00
2023-04-11T08:30:43.180Z,9.80
2023-04-11T08:33:12.666Z,9.80
2023-04-11T08:35:42.911Z,10.00
2023-04-11T08:38:10.736Z,10.10
2023-04-11T08:40:38.443Z,10.10
2023-04-11T08:43:11.923Z,10.30
2023-04-11T08:45:39.994Z,10.30
2023-04-11T08:48:07.970Z,10.50
2023-04-11T08:50:37.147Z,10.40
2023-04-11T08:53:05.790Z,10.50
2023-04-11T08:55:33.503Z,10.70
2023-04-11T08:58:03.039Z,10.70
2023-04-11T09:00:32.360Z,10.60
2023-04-11T09:03:01.726Z,10.60
2023-04-11T09:05:30.719Z,10.60
2023-04-11T09:08:01.383Z,10.50
2023-04-11T09:10:29.421Z,10.60
2023-04-11T09:12:59.168Z,10.40
2023-04-11T09:15:29.060Z,10.40
2023-04-11T09:18:00.559Z,10.60
2023-04-11T09:20:30.330Z,10.90
2023-04-11T09:23:00.221Z,10.70
2023-04-11T09:25:28.597Z,10.90
2023-04-11T09:28:08.717Z,11.20
2023-04-11T09:30:36.891Z,11.10
2023-04-11T09:33:21.294Z,11.10
2023-04-11T09:35:49.670Z,11.70
2023-04-11T09:38:31.118Z,11.50
2023-04-11T09:40:59.494Z,11.20
2023-04-11T09:43:27.509Z,11.30
2023-04-11T09:46:11.841Z,11.40
2023-04-11T09:51:12.676Z,11.20
2023-04-11T09:53:43.886Z,11.30
2023-04-11T09:56:12.530Z,11.40
2023-04-11T09:58:41.772Z,11.50
2023-04-11T10:01:10.924Z,11.50
2023-04-11T10:03:39.834Z,11.50
2023-04-11T10:06:09.498Z,11.70
2023-04-11T10:08:38.223Z,11.80
2023-04-11T10:11:11.419Z,11.50
2023-04-11T10:13:41.034Z,11.50
2023-04-11T10:16:11.298Z,11.60
2023-04-11T10:19:00.253Z,11.70
2023-04-11T10:21:42.648Z,11.80
2023-04-11T10:24:12.899Z,12.00
2023-04-11T10:26:52.933Z,12.30
2023-04-11T10:29:52.020Z,12.70
2023-04-11T10:32:24.514Z,12.70
2023-04-11T10:35:26.980Z,12.80
2023-04-11T10:37:56.324Z,13.10
2023-04-11T10:40:25.202Z,13.30
2023-04-11T10:42:53.029Z,13.50
2023-04-11T10:45:24.325Z,13.40
2023-04-11T10:48:07.667Z,13.40
2023-04-11T10:50:39.981Z,13.40
2023-04-11T10:53:14.089Z,13.40
2023-04-11T10:55:47.384Z,13.60
2023-04-11T10:58:17.122Z,13.20
2023-04-11T11:01:25.702Z,12.80
2023-04-11T11:04:01.042Z,12.90
2023-04-11T11:06:46.060Z,13.00
2023-04-11T11:09:26.317Z,12.60
2023-04-11T11:12:07.472Z,12.60
2023-04-11T11:14:35.281Z,12.60
2023-04-11T11:17:03.570Z,12.80
2023-04-11T11:19:31.914Z,12.80
2023-04-11T11:22:03.519Z,12.50
2023-04-11T11:24:33.235Z,12.60
2023-04-11T11:27:01.083Z,12.80
2023-04-11T11:29:32.961Z,12.90
2023-04-11T11:32:03.395Z,13.10
2023-04-11T11:34:32.554Z,13.10
2023-04-11T11:37:04.371Z,13.20
2023-04-11T11:39:33.826Z,13.50
2023-04-11T11:42:02.287Z,13.80
2023-04-11T11:44:31.766Z,13.70
2023-04-11T11:47:03.602Z,13.70
2023-04-11T11:49:45.381Z,13.60
2023-04-11T11:52:13.643Z,13.60
2023-04-11T11:54:47.082Z,13.60
2023-04-11T11:57:22.574Z,13.50
2023-04-11T11:59:54.196Z,13.70
2023-04-11T12:02:23.625Z,13.90
2023-04-11T12:04:51.739Z,13.90
2023-04-11T12:07:38.540Z,13.90
2023-04-11T12:10:11.574Z,14.20
2023-04-11T12:12:40.863Z,14.10
2023-04-11T12:15:12.124Z,13.70
2023-04-11T12:17:40.294Z,13.90
2023-04-11T12:20:09.012Z,13.60
2023-04-11T12:22:37.115Z,13.70
2023-04-11T12:25:08.776Z,13.70
2023-04-11T12:27:37.793Z,13.90
2023-04-11T12:30:06.531Z,14.00
2023-04-11T12:32:34.764Z,13.80
2023-04-11T12:35:03.314Z,13.90
2023-04-11T12:37:31.264Z,13.90
2023-04-11T12:39:58.989Z,14.10
2023-04-11T12:42:28.086Z,14.20
2023-04-11T12:44:55.835Z,13.90
2023-04-11T12:47:23.624Z,13.80
2023-04-11T12:49:51.889Z,13.90
2023-04-11T12:52:19.858Z,13.70
2023-04-11T12:54:47.641Z,13.90
2023-04-11T12:57:15.402Z,14.10
2023-04-11T12:59:44.427Z,14.30
2023-04-11T13:02:12.296Z,14.40
2023-04-11T13:04:40.246Z,14.50
2023-04-11T13:07:09.923Z,14.70
2023-04-11T13:09:37.603Z,14.70
2023-04-11T13:12:05.738Z,14.70
2023-04-11T13:14:33.425Z,14.10
2023-04-11T13:17:02.540Z,13.90
2023-04-11T13:19:30.864Z,13.90
2023-04-11T13:21:58.986Z,14.00
2023-04-11T13:24:27.297Z,13.80
2023-04-11T13:26:55.349Z,13.60
2023-04-11T13:29:23.026Z,13.50
2023-04-11T13:31:50.792Z,13.60
2023-04-11T13:34:20.223Z,13.20
2023-04-11T13:36:47.961Z,12.90
2023-04-11T13:39:15.944Z,12.70
2023-04-11T13:41:43.643Z,12.80
2023-04-11T13:44:11.360Z,12.90
2023-04-11T13:46:39.046Z,13.20
2023-04-11T13:49:06.923Z,13.50
2023-04-11T13:51:35.940Z,13.70
2023-04-11T13:54:03.754Z,13.90
2023-04-11T13:56:31.442Z,14.00
2023-04-11T13:58:59.661Z,14.40
2023-04-11T14:01:27.463Z,14.50
2023-04-11T14:03:55.693Z,14.60
2023-04-11T14:06:23.753Z,14.60
2023-04-11T14:08:52.886Z,14.80
2023-04-11T14:11:20.602Z,14.80
2023-04-11T14:13:48.411Z,14.80
2023-04-11T14:16:16.131Z,14.90
2023-04-11T14:18:44.587Z,14.60
2023-04-11T14:21:12.331Z,14.70
2023-04-11T14:23:40.094Z,14.90
2023-04-11T14:26:09.181Z,15.20
2023-04-11T14:28:37.137Z,15.40
2023-04-11T14:31:05.014Z,14.80
2023-04-11T14:33:32.823Z,14.60
2023-04-11T14:36:00.775Z,14.70
2023-04-11T14:38:28.525Z,14.80
2023-04-11T14:40:56.671Z,14.70
2023-04-11T14:43:25.921Z,14.40
2023-04-11T14:45:56.444Z,14.30
2023-04-11T14:48:25.091Z,13.90
2023-04-11T14:50:54.655Z,13.70
2023-04-11T14:53:22.382Z,13.80
2023-04-11T14:55:50.112Z,14.20
2023-04-11T14:58:17.881Z,14.40
2023-04-11T15:00:46.996Z,14.70
2023-04-11T15:03:15.515Z,14.50
2023-04-11T15:05:43.401Z,13.90
2023-04-11T15:08:11.113Z,13.70
2023-04-11T15:10:38.860Z,13.50
2023-04-11T15:13:08.788Z,13.60
2023-04-11T15:15:36.609Z,13.70
2023-04-11T15:18:23.040Z,13.70
2023-04-11T15:20:52.284Z,13.50
2023-04-11T15:23:23.290Z,13.40
2023-04-11T15:25:55.175Z,12.90
2023-04-11T15:28:23.188Z,12.50
2023-04-11T15:30:52.902Z,12.20
2023-04-11T15:33:24.180Z,12.10
2023-04-11T15:35:53.608Z,12.40
2023-04-11T15:38:21.810Z,11.90
2023-04-11T15:40:50.792Z,12.00
2023-04-11T15:43:18.869Z,12.30
2023-04-11T15:45:46.613Z,12.20
2023-04-11T15:48:14.582Z,12.10
2023-04-11T15:50:44.730Z,11.90
2023-04-11T15:53:12.645Z,11.90
2023-04-11T15:55:41.007Z,11.70
2023-04-11T15:58:08.915Z,11.30
2023-04-11T16:00:37.204Z,10.70
2023-04-11T16:03:08.229Z,10.60
2023-04-11T16:05:38.247Z,10.40
2023-04-11T16:08:07.473Z,10.40
2023-04-11T16:10:35.279Z,10.50
2023-04-11T16:13:03.140Z,10.90
2023-04-11T16:15:31.011Z,11.20
2023-04-11T16:18:01.870Z,11.40
2023-04-11T16:20:29.697Z,11.60
2023-04-11T16:23:00.381Z,11.60
2023-04-11T16:25:30.985Z,11.90
2023-04-11T16:27:59.185Z,11.90
2023-04-11T16:30:28.050Z,11.90
2023-04-11T16:32:55.900Z,11.70
2023-04-11T16:35:23.667Z,11.60
2023-04-11T16:37:51.474Z,11.70
2023-04-11T16:40:19.434Z,11.80
2023-04-11T16:42:48.515Z,11.80
2023-04-11T16:45:16.305Z,11.80
2023-04-11T16:47:44.107Z,11.70
2023-04-11T16:50:12.008Z,11.60
2023-04-11T16:52:40.459Z,11.30
2023-04-11T16:55:08.868Z,11.20
2023-04-11T16:57:37.108Z,10.90
2023-04-11T17:00:10.733Z,10.70
2023-04-11T17:02:38.571Z,10.70
2023-04-11T17:05:07.734Z,10.70
2023-04-11T17:07:35.481Z,10.90
2023-04-11T17:10:03.695Z,10.90
2023-04-11T17:12:31.748Z,11.00
2023-04-11T17:15:01.124Z,11.10
2023-04-11T17:17:30.226Z,11.10
2023-04-11T17:19:57.982Z,11.10
2023-04-11T17:22:25.987Z,11.20
2023-04-11T17:24:53.736Z,11.10
2023-04-11T17:27:21.487Z,11.20
2023-04-11T17:29:49.189Z,11.30
2023-04-11T17:32:16.966Z,11.40
2023-04-11T17:34:47.719Z,11.50
2023-04-11T17:37:15.462Z,11.60
2023-04-11T17:39:43.661Z,11.70
2023-04-11T17:42:13.646Z,11.80
2023-04-11T17:44:41.572Z,11.70
2023-04-11T17:47:09.326Z,11.50
2023-04-11T17:49:37.095Z,11.30
2023-04-11T17:52:06.208Z,11.20
2023-04-11T17:54:33.976Z,11.10
2023-04-11T17:57:03.343Z,11.30
2023-04-11T17:59:31.522Z,11.40
2023-04-11T18:01:59.675Z,11.50
2023-04-11T18:04:27.706Z,11.60
2023-04-11T18:06:56.184Z,11.50
2023-04-11T18:09:27.461Z,11.50
2023-04-11T18:11:55.682Z,11.60
2023-04-11T18:14:23.546Z,11.50
2023-04-11T18:16:51.421Z,11.40
2023-04-11T18:19:19.180Z,11.40
2023-04-11T18:21:48.432Z,11.30
2023-04-11T18:24:16.150Z,11.20
2023-04-11T18:26:45.201Z,11.10
2023-04-11T18:29:12.967Z,10.90
2023-04-11T18:31:40.689Z,10.70
2023-04-11T18:34:09.087Z,10.50
2023-04-11T18:36:37.011Z,10.40
2023-04-11T18:39:04.945Z,10.60
2023-04-11T18:41:32.638Z,10.60
2023-04-11T18:44:02.780Z,10.50
2023-04-11T18:46:31.164Z,10.70
2023-04-11T18:48:59.065Z,10.70
2023-04-11T18:51:26.770Z,10.70
2023-04-11T18:53:54.903Z,10.60
2023-04-11T18:56:22.824Z,10.50
2023-04-11T18:58:53.594Z,10.40
2023-04-11T19:01:25.089Z,10.30
2023-04-11T19:03:55.115Z,10.20
2023-04-11T19:06:23.538Z,10.30
2023-04-11T19:08:52.057Z,10.10
2023-04-11T19:11:19.847Z,10.00
2023-04-11T19:13:47.575Z,9.90
2023-04-11T19:16:15.973Z,9.70
2023-04-11T19:18:46.197Z,9.60
2023-04-11T19:21:13.909Z,9.50
2023-04-11T19:23:41.637Z,9.40
2023-04-11T19:26:09.545Z,9.60
2023-04-11T19:28:37.300Z,9.50
2023-04-11T19:31:05.614Z,9.60
2023-04-11T19:33:33.345Z,9.40
2023-04-11T19:36:02.495Z,9.40
2023-04-11T19:38:30.318Z,9.20
2023-04-11T19:40:58.070Z,9.10
2023-04-11T19:43:26.027Z,9.10
2023-04-11T19:45:53.813Z,9.10
2023-04-11T19:48:21.749Z,9.20
2023-04-11T19:50:49.442Z,9.20
2023-04-11T19:53:18.499Z,9.10
2023-04-11T19:55:51.304Z,9.10
2023-04-11T19:58:20.066Z,9.20
2023-04-11T20:00:47.927Z,9.30
2023-04-11T20:03:16.277Z,9.30
2023-04-11T20:05:45.646Z,9.30
2023-04-11T20:08:13.500Z,9.10
2023-04-11T20:10:42.569Z,9.20
2023-04-11T20:13:10.371Z,9.30
2023-04-11T20:15:38.106Z,9.30
2023-04-11T20:18:06.513Z,9.20
2023-04-11T20:20:36.660Z,9.10
2023-04-11T20:23:05.010Z,9.10
2023-04-11T20:25:32.886Z,8.90
2023-04-11T20:28:02.498Z,8.80
2023-04-11T20:30:30.707Z,8.70
2023-04-11T20:32:58.477Z,8.80
2023-04-11T20:35:26.590Z,8.70
2023-04-11T20:37:54.344Z,8.60
2023-04-11T20:40:23.041Z,8.50
2023-04-11T20:42:50.911Z,8.50
2023-04-11T20:45:21.884Z,8.40
2023-04-11T20:47:50.716Z,8.40
2023-04-11T20:50:19.490Z,8.30
2023-04-11T20:52:50.577Z,8.10
2023-04-11T20:55:18.772Z,8.20
2023-04-11T20:57:46.548Z,8.30
2023-04-11T21:00:16.914Z,8.40
2023-04-11T21:02:49.852Z,8.30
2023-04-11T21:05:19.948Z,8.20
2023-04-11T21:07:47.716Z,8.30
2023-04-11T21:10:16.163Z,8.30
2023-04-11T21:12:50.971Z,8.30
2023-04-11T21:15:19.768Z,8.10
2023-04-11T21:17:50.063Z,8.20
2023-04-11T21:20:21.111Z,8.10
2023-04-11T21:22:50.136Z,8.20
2023-04-11T21:25:18.060Z,8.20
2023-04-11T21:27:46.148Z,8.30
2023-04-11T21:30:15.114Z,8.20
2023-04-11T21:32:43.105Z,8.20
2023-04-11T21:35:13.150Z,8.10
2023-04-11T21:37:40.987Z,8.00
2023-04-11T21:40:09.720Z,7.70
2023-04-11T21:42:37.501Z,7.40
2023-04-11T21:45:05.823Z,7.10
2023-04-11T21:47:33.634Z,7.00
2023-04-11T21:50:01.489Z,7.20
2023-04-11T21:52:30.545Z,7.30
2023-04-11T21:54:58.294Z,7.40
2023-04-11T21:57:26.110Z,7.50
2023-04-11T21:59:53.787Z,7.50
2023-04-11T22:02:22.651Z,7.40
2023-04-11T22:05:04.571Z,7.40
2023-04-11T22:07:39.171Z,7.30
2023-04-11T22:10:10.267Z,7.40
2023-04-11T22:12:38.372Z,7.50
2023-04-11T22:15:07.616Z,7.40
2023-04-11T22:17:37.047Z,7.40
2023-04-11T22:20:09.057Z,7.20
2023-04-11T22:22:38.642Z,7.00
2023-04-11T22:25:07.457Z,7.00
2023-04-11T22:27:35.226Z,7.00
2023-04-11T22:30:03.428Z,6.80
2023-04-11T22:32:31.231Z,6.70
2023-04-11T22:34:59.939Z,6.50
2023-04-11T22:37:27.802Z,6.50
2023-04-11T22:39:56.879Z,6.40
2023-04-11T22:42:24.698Z,6.50
2023-04-11T22:44:52.435Z,6.50
2023-04-11T22:47:21.557Z,6.50
2023-04-11T22:49:50.406Z,6.50
2023-04-11T22:52:24.081Z,6.50
2023-04-11T22:54:51.917Z,6.70
2023-04-11T22:57:21.356Z,6.90
2023-04-11T22:59:49.148Z,6.90
2023-04-11T23:02:17.299Z,6.90
2023-04-11T23:04:45.402Z,6.90
2023-04-11T23:07:13.225Z,7.10
2023-04-11T23:09:40.937Z,6.90
2023-04-11T23:12:08.942Z,6.80
2023-04-11T23:14:37.977Z,6.60
2023-04-11T23:17:08.806Z,6.40
2023-04-11T23:19:36.908Z,6.40
2023-04-11T23:22:04.710Z,6.30
2023-04-11T23:24:32.443Z,6.40
2023-04-11T23:27:00.155Z,6.40
2023-04-11T23:29:28.078Z,6.40
2023-04-11T23:31:57.240Z,6.30
2023-04-11T23:34:25.076Z,6.30
2023-04-11T23:36:52.895Z,6.30
2023-04-11T23:39:21.440Z,6.10
2023-04-11T23:41:49.195Z,6.10
2023-04-11T23:44:17.121Z,5.90
2023-04-11T23:46:44.813Z,5.70
2023-04-11T23:49:13.874Z,5.70
2023-04-11T23:51:41.686Z,5.90
2023-04-11T23:54:09.412Z,5.90
2023-04-11T23:56:37.698Z,6.10
2023-04-11T23:59:05.541Z,6.20
